Time;durP1;ratioP1;P1;durP2;ratioP2;P2;SDS_P1;SDS_P2;PMS_P1;PMS_P2;Temp;Humidity;BMP_temperature;BMP_pressure;BME280_temperature;BME280_humidity;BME280_pressure;Samples;Min_cycle;Max_cycle;Signal;HPM_P1;HPM_P2
2022/06/16 00:02:13;;;;;;;6.90;4.90;;;20.50;99.90;;;;;;4990846;28;20050;-59
2022/06/16 00:04:39;;;;;;;5.90;4.85;;;20.50;99.90;;;;;;4991026;28;20514;-58
2022/06/16 00:07:05;;;;;;;6.78;4.90;;;20.60;99.90;;;;;;4989293;28;20037;-58
2022/06/16 00:09:30;;;;;;;6.53;4.72;;;20.30;99.90;;;;;;4988585;28;20038;-58
2022/06/16 00:11:56;;;;;;;8.40;5.15;;;20.40;99.90;;;;;;4988434;28;20050;-59
2022/06/16 00:14:27;;;;;;;6.00;4.72;;;20.30;99.90;;;;;;4993048;28;20052;-59
2022/06/16 00:16:54;;;;;;;6.22;4.95;;;20.40;99.90;;;;;;4977182;28;20106;-59
2022/06/16 00:19:19;;;;;;;6.45;4.82;;;20.20;99.90;;;;;;4989276;28;20113;-59
2022/06/16 00:21:45;;;;;;;6.25;4.53;;;20.20;99.90;;;;;;4988309;28;20109;-58
2022/06/16 00:24:11;;;;;;;7.13;4.57;;;20.30;99.90;;;;;;4988403;28;20089;-59
2022/06/16 00:26:37;;;;;;;6.35;4.93;;;20.50;99.90;;;;;;4988614;28;20042;-57
2022/06/16 00:29:03;;;;;;;6.85;5.30;;;20.40;99.90;;;;;;4991787;28;20030;-58
2022/06/16 00:31:29;;;;;;;6.78;5.35;;;20.10;99.90;;;;;;4989512;28;20410;-59
2022/06/16 00:33:54;;;;;;;8.05;5.80;;;19.80;99.90;;;;;;4978138;28;20027;-59
2022/06/16 00:36:20;;;;;;;5.80;4.78;;;19.80;99.90;;;;;;4981631;28;20038;-59
2022/06/16 00:38:46;;;;;;;6.05;4.68;;;19.90;99.90;;;;;;4981597;28;20018;-59
2022/06/16 00:41:12;;;;;;;7.75;5.07;;;20.10;99.90;;;;;;4979380;28;20533;-58
2022/06/16 00:43:39;;;;;;;6.78;4.95;;;20.10;99.90;;;;;;4976983;28;20400;-58
2022/06/16 00:46:07;;;;;;;7.70;4.57;;;19.90;99.90;;;;;;4979873;28;20052;-59
2022/06/16 00:48:41;;;;;;;6.47;4.75;;;19.90;99.90;;;;;;4981300;28;20062;-59
2022/06/16 00:51:25;;;;;;;7.03;4.82;;;19.70;99.90;;;;;;4981411;28;20033;-59
2022/06/16 00:53:52;;;;;;;7.57;4.95;;;19.80;99.90;;;;;;4981475;28;20054;-58
2022/06/16 00:56:20;;;;;;;6.97;4.75;;;20.10;99.90;;;;;;4977022;28;20066;-59
2022/06/16 00:58:52;;;;;;;8.48;4.45;;;20.10;99.90;;;;;;4991126;28;20472;-59
2022/06/16 01:01:21;;;;;;;5.85;4.65;;;20.20;99.90;;;;;;4988270;28;20027;-59
2022/06/16 01:06:32;;;;;;;6.05;4.28;;;20.10;99.90;;;;;;4987960;28;20407;-59
2022/06/16 01:09:12;;;;;;;6.88;4.75;;;20.10;99.90;;;;;;4987932;28;20052;-59
2022/06/16 01:14:55;;;;;;;7.70;4.35;;;20.00;99.90;;;;;;4987695;28;20034;-59
2022/06/16 01:17:25;;;;;;;8.75;5.22;;;20.00;99.90;;;;;;4976917;28;20094;-59
2022/06/16 01:20:17;;;;;;;5.95;4.85;;;19.90;99.90;;;;;;4991729;28;20026;-60
2022/06/16 01:22:57;;;;;;;5.45;4.68;;;19.70;99.90;;;;;;4990348;28;20041;-58
2022/06/16 01:25:49;;;;;;;7.72;5.50;;;19.70;99.90;;;;;;4988448;28;20057;-58
2022/06/16 01:28:32;;;;;;;7.40;5.47;;;19.70;99.90;;;;;;4977207;28;20514;-58
2022/06/16 01:31:31;;;;;;;7.53;5.43;;;19.30;99.90;;;;;;4980707;28;20483;-59
2022/06/16 01:34:03;;;;;;;6.20;5.00;;;19.00;99.90;;;;;;4983368;28;20381;-59
2022/06/16 01:36:57;;;;;;;5.70;5.20;;;19.00;99.90;;;;;;4983911;28;20101;-59
2022/06/16 01:39:28;;;;;;;;;;;19.20;99.90;;;;;;4981448;28;20038;-59
2022/06/16 01:42:02;;;;;;;7.05;5.65;;;19.10;99.90;;;;;;4980878;28;19906;-59
2022/06/16 01:44:43;;;;;;;6.10;5.47;;;19.30;99.90;;;;;;4980361;28;20038;-59
2022/06/16 01:47:15;;;;;;;8.63;5.25;;;19.20;99.90;;;;;;4976566;28;20029;-59
2022/06/16 01:49:52;;;;;;;5.88;5.13;;;19.30;99.90;;;;;;4989947;28;20033;-59
2022/06/16 01:52:25;;;;;;;5.28;4.78;;;19.30;99.90;;;;;;4977576;28;20034;-58
2022/06/16 01:55:00;;;;;;;5.80;5.20;;;19.30;99.90;;;;;;4980466;28;20046;-58
2022/06/16 01:57:37;;;;;;;6.55;5.20;;;19.40;99.90;;;;;;4980176;28;20089;-58
2022/06/16 02:00:13;;;;;;;6.40;5.80;;;19.30;99.90;;;;;;4980859;28;20027;-59
2022/06/16 02:02:41;;;;;;;7.30;5.55;;;19.20;99.90;;;;;;4980860;28;20483;-59
2022/06/16 02:05:27;;;;;;;5.95;5.13;;;19.10;99.90;;;;;;4977693;28;20050;-59
2022/06/16 02:08:00;;;;;;;6.60;5.50;;;19.00;99.90;;;;;;4976002;28;20079;-57
2022/06/16 02:10:37;;;;;;;6.80;5.03;;;19.00;99.90;;;;;;4988448;28;20026;-58
2022/06/16 02:13:05;;;;;;;6.32;5.40;;;19.20;99.90;;;;;;4987383;28;20034;-56
2022/06/16 02:16:01;;;;;;;5.38;4.80;;;19.20;99.90;;;;;;4983125;28;20387;-58
2022/06/16 02:18:31;;;;;;;8.70;5.65;;;19.30;99.90;;;;;;4980704;28;20030;-59
2022/06/16 02:21:17;;;;;;;6.72;5.20;;;19.10;99.90;;;;;;4980680;28;20491;-59
2022/06/16 02:23:44;;;;;;;6.18;5.57;;;19.00;99.90;;;;;;4980232;28;20434;-59
2022/06/16 02:26:10;;;;;;;7.10;5.40;;;19.00;99.90;;;;;;4978193;28;20053;-58
2022/06/16 02:28:48;;;;;;;7.35;5.40;;;18.90;99.90;;;;;;4978209;28;20027;-58
2022/06/16 02:31:41;;;;;;;6.90;6.00;;;18.90;99.90;;;;;;4980333;28;20093;-59
2022/06/16 02:34:20;;;;;;;7.18;5.50;;;18.50;99.90;;;;;;4980385;28;20035;-58
2022/06/16 02:36:51;;;;;;;5.30;4.80;;;18.70;99.90;;;;;;4983862;28;20054;-57
2022/06/16 02:39:41;;;;;;;7.93;5.60;;;19.10;99.90;;;;;;4983638;28;20101;-58
2022/06/16 02:42:30;;;;;;;7.68;5.57;;;18.90;99.90;;;;;;4983574;28;20027;-59
2022/06/16 02:45:05;;;;;;;8.00;6.10;;;18.50;99.90;;;;;;4983724;28;20067;-58
2022/06/16 02:47:58;;;;;;;6.07;5.47;;;18.20;99.90;;;;;;4983979;28;20391;-59
2022/06/16 02:50:41;;;;;;;6.22;5.60;;;18.30;99.90;;;;;;4915448;29;20048;-58
2022/06/16 02:56:27;;;;;;;7.95;5.70;;;18.30;99.90;;;;;;4863722;29;20056;-58
2022/06/16 02:58:57;;;;;;;7.93;5.70;;;18.20;99.90;;;;;;4875544;29;20040;-58
2022/06/16 03:01:24;;;;;;;7.03;5.50;;;18.40;99.90;;;;;;4878493;29;20040;-59
2022/06/16 03:04:15;;;;;;;7.13;5.10;;;18.10;99.90;;;;;;4857298;29;20384;-58
2022/06/16 03:06:41;;;;;;;6.70;5.35;;;18.40;99.90;;;;;;4872312;29;20128;-59
2022/06/16 03:09:07;;;;;;;7.43;5.63;;;18.60;99.90;;;;;;4872500;29;20037;-58
2022/06/16 03:11:35;;;;;;;6.38;5.75;;;18.50;99.90;;;;;;4871983;29;20507;-59
2022/06/16 03:14:01;;;;;;;7.95;5.65;;;18.50;99.90;;;;;;4875854;29;20033;-59
2022/06/16 03:16:27;;;;;;;7.57;5.47;;;18.30;99.90;;;;;;4874429;29;20033;-58
2022/06/16 03:18:53;;;;;;;5.82;5.22;;;18.50;99.90;;;;;;4872437;29;20048;-59
2022/06/16 03:21:19;;;;;;;6.25;5.20;;;19.20;99.90;;;;;;4872556;29;20041;-59
2022/06/16 03:23:45;;;;;;;7.15;5.40;;;19.20;99.90;;;;;;4872053;29;20145;-58
2022/06/16 03:26:11;;;;;;;7.18;6.07;;;18.40;99.90;;;;;;4878539;29;20064;-59
2022/06/16 03:28:37;;;;;;;7.13;5.50;;;17.80;99.90;;;;;;4931568;29;20094;-59
2022/06/16 03:31:03;;;;;;;8.10;6.05;;;17.90;99.90;;;;;;4938558;28;20390;-59
2022/06/16 03:33:29;;;;;;;6.65;5.45;;;17.80;99.90;;;;;;5008920;28;20460;-59
2022/06/16 03:35:55;;;;;;;7.35;6.05;;;18.20;99.90;;;;;;4989529;28;20062;-59
2022/06/16 03:38:25;;;;;;;6.45;5.85;;;18.00;99.90;;;;;;4990098;28;20057;-56
2022/06/16 03:40:50;;;;;;;6.60;6.00;;;18.00;99.90;;;;;;4992333;28;20454;-58
2022/06/16 03:43:16;;;;;;;7.35;6.55;;;17.80;99.90;;;;;;4990059;28;20026;-57
2022/06/16 03:45:42;;;;;;;7.10;5.75;;;17.50;99.90;;;;;;4979686;28;20070;-58
2022/06/16 03:48:08;;;;;;;6.82;6.13;;;17.90;99.90;;;;;;4983485;28;20026;-58
2022/06/16 03:50:34;;;;;;;6.90;6.03;;;17.80;99.90;;;;;;4989104;28;20501;-59
2022/06/16 03:53:00;;;;;;;6.38;5.78;;;17.80;99.90;;;;;;4992793;28;20033;-59
2022/06/16 03:55:26;;;;;;;10.32;6.28;;;17.90;99.90;;;;;;4989936;28;20046;-58
2022/06/16 03:57:52;;;;;;;6.60;5.95;;;18.10;99.90;;;;;;4988220;28;20085;-59
2022/06/16 04:00:21;;;;;;;7.95;6.25;;;17.90;99.90;;;;;;4988738;28;20554;-59
2022/06/16 04:02:49;;;;;;;7.78;5.65;;;17.90;99.90;;;;;;4990942;28;20026;-59
2022/06/16 04:05:15;;;;;;;9.23;6.60;;;18.10;99.90;;;;;;4980404;28;20038;-59
2022/06/16 04:07:40;;;;;;;8.63;5.90;;;18.00;99.90;;;;;;4977770;28;20031;-57
2022/06/16 04:10:07;;;;;;;8.63;6.40;;;18.00;99.90;;;;;;4980222;28;20045;-58
2022/06/16 04:12:33;;;;;;;8.85;6.07;;;18.00;99.90;;;;;;4986583;28;20038;-59
2022/06/16 04:14:59;;;;;;;8.73;6.07;;;18.10;99.90;;;;;;4988676;28;20065;-58
2022/06/16 04:17:25;;;;;;;8.90;6.07;;;18.10;99.90;;;;;;4989553;28;20011;-59
2022/06/16 04:22:35;;;;;;;8.05;6.03;;;18.10;99.90;;;;;;4990466;28;20061;-58
2022/06/16 04:25:01;;;;;;;9.45;6.30;;;18.10;99.90;;;;;;4989092;28;20070;-59
2022/06/16 04:27:26;;;;;;;7.43;5.82;;;18.20;99.90;;;;;;4988840;28;20054;-59
2022/06/16 04:29:52;;;;;;;9.23;5.65;;;18.30;99.90;;;;;;4988365;28;20038;-58
2022/06/16 04:32:18;;;;;;;8.57;5.97;;;18.40;99.90;;;;;;4989653;28;20077;-57
2022/06/16 04:34:44;;;;;;;7.75;6.18;;;18.40;99.90;;;;;;4991322;28;20034;-58
2022/06/16 04:37:11;;;;;;;7.40;6.53;;;18.20;99.90;;;;;;4988484;28;20034;-57
2022/06/16 04:39:37;;;;;;;9.38;6.72;;;17.80;99.90;;;;;;4988486;28;20068;-58
2022/06/16 04:42:04;;;;;;;6.30;5.72;;;17.70;99.90;;;;;;4988008;28;20026;-58
2022/06/16 04:44:31;;;;;;;7.03;6.03;;;17.90;99.90;;;;;;4981477;28;20042;-58
2022/06/16 04:46:57;;;;;;;11.30;6.40;;;18.00;99.90;;;;;;4977441;28;20620;-58
2022/06/16 04:49:23;;;;;;;25.98;6.65;;;18.10;99.90;;;;;;4977631;28;20034;-58
2022/06/16 04:51:49;;;;;;;17.48;6.82;;;18.20;99.90;;;;;;4987334;28;20387;-60
2022/06/16 04:54:15;;;;;;;21.13;7.43;;;18.20;99.90;;;;;;4987742;28;20042;-60
2022/06/16 04:56:41;;;;;;;11.93;6.85;;;17.80;99.90;;;;;;4987770;28;20039;-60
2022/06/16 04:59:07;;;;;;;14.43;6.90;;;16.80;99.90;;;;;;4990785;28;20522;-59
2022/06/16 05:01:33;;;;;;;12.38;6.45;;;16.70;99.90;;;;;;4989557;28;20026;-59
2022/06/16 05:03:58;;;;;;;14.30;7.40;;;16.80;99.90;;;;;;4988676;28;20550;-61
2022/06/16 05:06:24;;;;;;;18.83;7.40;;;16.70;99.90;;;;;;4987467;28;20038;-61
2022/06/16 05:08:50;;;;;;;17.05;7.57;;;16.30;99.90;;;;;;4987729;28;20022;-60
2022/06/16 05:11:15;;;;;;;10.52;7.55;;;16.10;99.90;;;;;;4989536;28;20475;-61
2022/06/16 05:13:41;;;;;;;9.05;7.20;;;16.10;99.90;;;;;;4990884;28;20025;-60
2022/06/16 05:16:07;;;;;;;10.82;8.20;;;16.20;99.90;;;;;;4988453;28;20491;-61
2022/06/16 05:18:33;;;;;;;16.05;8.00;;;16.10;99.90;;;;;;4987614;28;20039;-61
2022/06/16 05:21:11;;;;;;;10.52;7.90;;;16.10;99.90;;;;;;4987515;28;20031;-61
2022/06/16 05:23:37;;;;;;;9.05;8.07;;;16.10;99.90;;;;;;4975155;28;20129;-61
2022/06/16 05:26:03;;;;;;;9.45;7.65;;;16.10;99.90;;;;;;4992260;28;20121;-61
2022/06/16 05:28:30;;;;;;;10.90;7.85;;;16.10;99.90;;;;;;4976642;28;20026;-61
2022/06/16 05:30:57;;;;;;;12.05;8.13;;;16.20;99.90;;;;;;4988200;28;20036;-61
2022/06/16 05:33:22;;;;;;;11.93;7.93;;;16.30;99.90;;;;;;4987438;28;20030;-61
2022/06/16 05:36:03;;;;;;;10.25;8.40;;;16.40;99.90;;;;;;4987359;28;20046;-62
2022/06/16 05:38:29;;;;;;;9.25;7.65;;;16.60;99.90;;;;;;4987520;28;20018;-61
2022/06/16 05:41:03;;;;;;;11.60;7.63;;;16.90;99.90;;;;;;4992215;28;20027;-61
2022/06/16 05:43:29;;;;;;;;;;;17.20;99.90;;;;;;4989018;28;20454;-61
2022/06/16 05:45:55;;;;;;;10.40;7.47;;;17.40;99.90;;;;;;4987831;28;20280;-62
2022/06/16 05:48:21;;;;;;;11.45;7.03;;;17.60;99.90;;;;;;4980605;28;20070;-62
2022/06/16 05:50:47;;;;;;;9.93;7.68;;;18.00;99.90;;;;;;4978734;28;20015;-61
2022/06/16 05:53:13;;;;;;;10.10;7.15;;;18.20;99.90;;;;;;4989525;28;20042;-60
2022/06/16 05:55:38;;;;;;;9.20;7.20;;;18.50;99.90;;;;;;4989598;28;20065;-62
2022/06/16 05:58:04;;;;;;;9.65;7.00;;;18.80;99.90;;;;;;4987968;28;20121;-62
2022/06/16 06:00:30;;;;;;;9.27;7.22;;;19.70;99.90;;;;;;4983238;28;20023;-63
2022/06/16 06:02:58;;;;;;;8.82;6.38;;;20.30;99.90;;;;;;4982267;28;20057;-62
2022/06/16 06:05:26;;;;;;;9.02;7.18;;;20.90;99.90;;;;;;4983755;28;20273;-61
2022/06/16 06:16:28;;;;;;;8.07;6.57;;;23.00;99.90;;;;;;4980859;28;20066;-63
2022/06/16 06:18:58;;;;;;;8.77;7.20;;;24.20;99.90;;;;;;4983815;28;20037;-63
2022/06/16 06:24:11;;;;;;;8.65;6.85;;;25.00;99.90;;;;;;4983945;28;20066;-63
2022/06/16 06:26:38;;;;;;;8.23;6.20;;;26.20;99.90;;;;;;4984150;28;20475;-65
2022/06/16 06:29:04;;;;;;;10.80;6.90;;;26.80;99.90;;;;;;4977865;28;20487;-64
2022/06/16 06:31:30;;;;;;;10.98;6.47;;;27.30;99.90;;;;;;4985719;28;20054;-65
2022/06/16 06:33:56;;;;;;;8.50;6.47;;;;;;;;;;4984111;28;20499;-66
2022/06/16 06:36:21;;;;;;;11.27;6.05;;;28.30;99.80;;;;;;4983753;28;20026;-64
2022/06/16 06:38:47;;;;;;;7.28;6.22;;;28.30;99.70;;;;;;4984484;28;20030;-64
2022/06/16 06:41:14;;;;;;;7.30;5.80;;;29.30;98.50;;;;;;4986299;28;20023;-65
2022/06/16 06:43:40;;;;;;;8.85;5.80;;;27.50;99.10;;;;;;4984759;28;20117;-65
2022/06/16 06:46:06;;;;;;;6.65;5.90;;;26.90;99.90;;;;;;4984641;28;20586;-66
2022/06/16 06:48:32;;;;;;;13.50;6.30;;;27.30;99.90;;;;;;4984469;28;20038;-64
2022/06/16 06:50:58;;;;;;;8.57;5.90;;;27.50;99.90;;;;;;4984217;28;20403;-64
2022/06/16 06:53:24;;;;;;;6.18;5.60;;;27.40;99.90;;;;;;4986956;28;20097;-65
2022/06/16 06:55:49;;;;;;;8.35;5.93;;;27.60;98.90;;;;;;4985265;28;20462;-65
2022/06/16 06:58:21;;;;;;;8.90;6.00;;;28.60;98.80;;;;;;4984767;28;20046;-64
2022/06/16 07:00:49;;;;;;;13.13;6.20;;;27.80;98.50;;;;;;4982055;28;20031;-66
2022/06/16 07:03:15;;;;;;;11.07;5.80;;;28.30;98.50;;;;;;4981054;28;20038;-66
2022/06/16 07:05:41;;;;;;;14.75;5.78;;;29.10;97.40;;;;;;4986606;28;20088;-65
2022/06/16 07:08:07;;;;;;;8.85;6.35;;;29.30;96.70;;;;;;4986983;28;20026;-65
2022/06/16 07:10:32;;;;;;;8.75;6.28;;;30.10;96.20;;;;;;4985969;28;20049;-65
2022/06/16 07:12:58;;;;;;;9.15;6.30;;;30.50;95.40;;;;;;4984708;28;20037;-67
2022/06/16 07:15:24;;;;;;;7.78;6.13;;;30.60;95.20;;;;;;4986168;28;20034;-66
2022/06/16 07:17:50;;;;;;;7.70;6.50;;;30.50;95.10;;;;;;4986574;28;20023;-68
2022/06/16 07:20:17;;;;;;;8.30;6.80;;;31.20;94.50;;;;;;4987239;28;20018;-67
2022/06/16 07:22:46;;;;;;;7.07;6.40;;;31.70;94.40;;;;;;4985765;28;20029;-67
2022/06/16 07:25:13;;;;;;;8.27;6.50;;;32.50;93.80;;;;;;4982286;28;20038;-67
2022/06/16 07:27:39;;;;;;;9.07;6.32;;;32.20;94.20;;;;;;4987174;28;20077;-67
2022/06/16 07:30:13;;;;;;;8.20;5.90;;;32.10;93.80;;;;;;4986110;28;20408;-67
2022/06/16 07:32:40;;;;;;;7.57;6.03;;;32.20;93.60;;;;;;4985770;28;20106;-67
2022/06/16 07:35:06;;;;;;;8.80;6.25;;;32.70;93.40;;;;;;4985840;28;20071;-67
2022/06/16 07:37:32;;;;;;;7.05;6.28;;;32.70;93.00;;;;;;4983446;28;20054;-67
2022/06/16 07:39:57;;;;;;;9.95;7.13;;;33.80;92.70;;;;;;4980979;28;20065;-68
2022/06/16 07:42:23;;;;;;;9.15;6.40;;;34.90;91.60;;;;;;4982618;28;20035;-69
2022/06/16 07:44:49;;;;;;;8.90;6.30;;;35.70;90.80;;;;;;4982646;28;20046;-69
2022/06/16 07:47:15;;;;;;;8.30;5.90;;;35.60;89.60;;;;;;4980557;28;20072;-68
2022/06/16 07:49:40;;;;;;;9.35;5.90;;;37.70;87.40;;;;;;4978005;28;20497;-68
2022/06/16 07:52:07;;;;;;;8.70;5.90;;;37.40;86.10;;;;;;4991854;28;20033;-67
2022/06/16 07:54:32;;;;;;;7.85;5.13;;;36.40;86.50;;;;;;4988574;28;20045;-68
2022/06/16 07:56:58;;;;;;;7.03;5.13;;;37.50;85.60;;;;;;4984977;28;20026;-68
2022/06/16 07:59:24;;;;;;;8.07;5.00;;;37.50;84.70;;;;;;4981770;28;20022;-69
2022/06/16 08:01:50;;;;;;;17.80;5.40;;;37.90;84.00;;;;;;4977650;28;20062;-68
2022/06/16 08:04:15;;;;;;;11.27;5.72;;;38.10;82.00;;;;;;4979848;28;20556;-68
2022/06/16 08:06:41;;;;;;;12.30;4.93;;;37.60;82.50;;;;;;4987469;28;20062;-67
2022/06/16 08:09:08;;;;;;;11.35;5.25;;;35.90;85.10;;;;;;4988756;28;20036;-68
2022/06/16 08:14:18;;;;;;;14.13;5.32;;;34.00;89.10;;;;;;4989272;28;20041;-68
2022/06/16 08:16:44;;;;;;;14.20;5.20;;;33.20;90.50;;;;;;4991746;28;20399;-68
2022/06/16 08:19:10;;;;;;;19.95;5.13;;;32.60;91.10;;;;;;4989084;28;20054;-67
2022/06/16 08:21:36;;;;;;;16.00;5.90;;;31.50;91.10;;;;;;4988932;28;20041;-66
2022/06/16 08:24:02;;;;;;;16.30;5.35;;;31.50;92.00;;;;;;4988400;28;20145;-66
2022/06/16 08:26:30;;;;;;;10.63;6.18;;;31.20;93.30;;;;;;4988074;28;20380;-67
2022/06/16 08:28:57;;;;;;;10.73;6.20;;;30.90;93.30;;;;;;4977142;28;20034;-68
2022/06/16 08:31:24;;;;;;;9.63;5.45;;;31.10;93.60;;;;;;4989349;28;20105;-66
2022/06/16 08:33:51;;;;;;;11.95;5.38;;;31.10;94.20;;;;;;4988289;28;20049;-67
2022/06/16 08:36:19;;;;;;;11.23;4.88;;;31.00;94.10;;;;;;4986466;28;20022;-67
2022/06/16 08:38:45;;;;;;;12.25;5.43;;;31.10;94.70;;;;;;4981936;28;20023;-66
2022/06/16 08:41:22;;;;;;;11.27;4.90;;;31.10;95.60;;;;;;4979331;28;20081;-61
2022/06/16 08:43:53;;;;;;;11.32;5.55;;;30.20;96.90;;;;;;4975795;28;20046;-62
2022/06/16 08:46:20;;;;;;;11.15;5.25;;;29.90;97.70;;;;;;4982686;28;20557;-63
2022/06/16 08:49:21;;;;;;;9.13;4.72;;;30.10;97.40;;;;;;4981692;28;20115;-62
2022/06/16 08:52:02;;;;;;;10.88;5.20;;;30.60;96.80;;;;;;4981532;28;20038;-62
2022/06/16 08:55:14;;;;;;;8.63;5.30;;;30.90;96.30;;;;;;4981513;28;20077;-64
2022/06/16 08:57:42;;;;;;;9.02;4.70;;;31.60;96.30;;;;;;4981100;28;20070;-62
2022/06/16 09:00:15;;;;;;;11.05;4.68;;;32.40;95.00;;;;;;4981047;28;20027;-63
2022/06/16 09:03:00;;;;;;;9.60;5.13;;;33.40;93.80;;;;;;4981429;28;20030;-63
2022/06/16 09:05:37;;;;;;;10.43;4.97;;;34.70;93.10;;;;;;4980904;28;20034;-62
2022/06/16 09:08:33;;;;;;;6.85;4.30;;;34.90;92.40;;;;;;4977107;28;20026;-63
2022/06/16 09:11:20;;;;;;;9.07;4.70;;;36.30;91.20;;;;;;4977050;28;20030;-63
2022/06/16 09:14:07;;;;;;;8.70;4.57;;;38.40;87.60;;;;;;4981053;28;20451;-63
2022/06/16 09:16:32;;;;;;;7.70;4.00;;;39.60;82.20;;;;;;4974372;28;20051;-63
2022/06/16 09:19:18;;;;;;;7.05;4.07;;;39.70;82.20;;;;;;4984408;28;20022;-63
2022/06/16 09:21:52;;;;;;;7.75;3.95;;;37.60;84.50;;;;;;4980692;28;20526;-64
2022/06/16 09:24:26;;;;;;;7.40;4.15;;;38.00;84.30;;;;;;4980920;28;20074;-64
2022/06/16 09:26:57;;;;;;;;;;;38.50;82.20;;;;;;4981132;28;20450;-64
2022/06/16 09:29:34;;;;;;;8.10;4.10;;;39.70;79.10;;;;;;4980092;28;20406;-63
2022/06/16 09:32:13;;;;;;;7.28;3.60;;;38.90;82.10;;;;;;4976961;28;20030;-63
2022/06/16 09:34:48;;;;;;;7.05;3.63;;;37.60;79.90;;;;;;4989997;28;20061;-64
2022/06/16 09:37:21;;;;;;;10.35;4.13;;;37.60;80.40;;;;;;4977815;28;20030;-63
2022/06/16 09:40:11;;;;;;;9.23;4.05;;;37.10;81.00;;;;;;4984497;28;20578;-64
2022/06/16 09:42:45;;;;;;;7.72;3.38;;;39.40;78.30;;;;;;4985041;28;20066;-64
2022/06/16 09:45:25;;;;;;;8.75;3.50;;;36.80;76.70;;;;;;4975446;28;20397;-64
2022/06/16 09:48:10;;;;;;;9.27;3.80;;;37.40;75.00;;;;;;4984774;28;20058;-64
2022/06/16 09:51:03;;;;;;;9.57;3.78;;;36.50;77.60;;;;;;4984927;28;20029;-64
2022/06/16 09:53:39;;;;;;;10.48;3.85;;;36.80;75.20;;;;;;4984659;28;20034;-64
2022/06/16 09:56:21;;;;;;;8.52;3.30;;;37.60;76.80;;;;;;4979981;28;20434;-64
2022/06/16 09:58:53;;;;;;;8.45;3.42;;;36.70;77.40;;;;;;4994742;28;20038;-63
2022/06/16 10:01:22;;;;;;;13.10;3.50;;;34.70;77.30;;;;;;4981477;28;20168;-64
2022/06/16 10:04:00;;;;;;;9.88;3.35;;;34.40;79.40;;;;;;4984762;28;20027;-64
2022/06/16 10:06:56;;;;;;;10.35;3.53;;;35.70;76.70;;;;;;4984392;28;20041;-64
2022/06/16 10:09:39;;;;;;;8.43;3.42;;;34.80;75.30;;;;;;4984490;28;20031;-64
2022/06/16 10:12:14;;;;;;;10.18;3.60;;;34.80;74.50;;;;;;4984044;28;20053;-64
2022/06/16 10:15:15;;;;;;;7.47;3.15;;;34.40;74.60;;;;;;4984384;28;20030;-64
2022/06/16 10:17:43;;;;;;;8.55;3.50;;;33.50;74.00;;;;;;4984623;28;20379;-64
2022/06/16 10:20:10;;;;;;;12.10;3.78;;;35.00;74.60;;;;;;4981345;28;20484;-63
2022/06/16 10:22:39;;;;;;;8.65;3.97;;;34.10;74.90;;;;;;4979636;28;20034;-63
2022/06/16 10:25:38;;;;;;;6.38;3.15;;;35.20;73.80;;;;;;4982757;28;20031;-64
2022/06/16 10:28:15;;;;;;;7.88;3.28;;;35.20;73.60;;;;;;4962718;28;20492;-63
2022/06/16 10:30:41;;;;;;;8.02;3.00;;;34.30;75.00;;;;;;4984010;28;20118;-64
2022/06/16 10:33:18;;;;;;;8.65;2.95;;;33.70;74.30;;;;;;4984140;28;20082;-63
2022/06/16 10:36:00;;;;;;;7.63;2.78;;;34.10;72.90;;;;;;4984224;28;20042;-63
2022/06/16 10:38:38;;;;;;;9.85;2.92;;;33.30;75.00;;;;;;4983953;28;20034;-63
2022/06/16 10:41:23;;;;;;;10.45;3.42;;;33.50;71.60;;;;;;4980130;28;20038;-63
2022/06/16 10:43:53;;;;;;;8.27;2.80;;;33.70;71.00;;;;;;4979212;28;20105;-63
2022/06/16 10:46:32;;;;;;;9.23;3.10;;;33.90;70.00;;;;;;4980675;28;20011;-63
2022/06/16 10:49:01;;;;;;;8.75;3.83;;;34.00;69.40;;;;;;4982559;28;20492;-63
2022/06/16 10:51:29;;;;;;;10.10;3.20;;;33.70;70.90;;;;;;4983588;28;20030;-64
2022/06/16 10:54:03;;;;;;;6.30;2.97;;;33.70;70.70;;;;;;4983422;28;20109;-63
2022/06/16 10:56:29;;;;;;;10.45;3.22;;;34.50;68.90;;;;;;4983751;28;20051;-63
2022/06/16 10:59:04;;;;;;;7.72;2.92;;;35.00;68.50;;;;;;4978957;28;20027;-63
2022/06/16 11:01:40;;;;;;;8.25;3.03;;;34.90;67.00;;;;;;4991307;28;20070;-64
2022/06/16 11:04:19;;;;;;;11.90;3.38;;;34.90;67.20;;;;;;4990536;28;20513;-63
2022/06/16 11:06:54;;;;;;;9.65;3.05;;;34.40;67.80;;;;;;4990152;28;20030;-63
2022/06/16 11:09:26;;;;;;;11.02;3.35;;;34.20;65.60;;;;;;4989622;28;20058;-63
2022/06/16 11:11:56;;;;;;;8.48;3.28;;;34.90;67.20;;;;;;4989772;28;20026;-63
2022/06/16 11:14:48;;;;;;;8.10;3.28;;;34.30;67.10;;;;;;4991000;28;20014;-63
2022/06/16 11:17:29;;;;;;;9.20;3.20;;;35.60;65.90;;;;;;4981562;28;20038;-63
2022/06/16 11:20:00;;;;;;;7.47;3.38;;;35.10;64.60;;;;;;4979031;28;20019;-63
2022/06/16 11:22:35;;;;;;;8.82;3.17;;;33.80;64.90;;;;;;4990851;28;20041;-64
2022/06/16 11:25:06;;;;;;;9.38;2.90;;;34.90;65.40;;;;;;4988909;28;20035;-63
2022/06/16 11:27:47;;;;;;;9.90;2.92;;;34.10;62.70;;;;;;4989479;28;20058;-63
2022/06/16 11:30:31;;;;;;;9.45;2.42;;;34.40;59.80;;;;;;4989355;28;20081;-63
2022/06/16 11:32:58;;;;;;;10.95;2.85;;;34.00;57.70;;;;;;4989394;28;20566;-63
2022/06/16 11:35:41;;;;;;;15.75;3.25;;;34.40;59.00;;;;;;4990745;28;20062;-63
2022/06/16 11:39:00;;;;;;;9.98;2.90;;;34.90;59.80;;;;;;4978686;28;20025;-64
2022/06/16 11:41:27;;;;;;;9.80;3.25;;;33.90;59.00;;;;;;4914941;29;20397;-63
2022/06/16 11:44:04;;;;;;;7.63;3.17;;;34.80;58.80;;;;;;4914555;28;20040;-63
2022/06/16 11:46:57;;;;;;;9.23;2.50;;;34.50;58.10;;;;;;4911606;29;20514;-63
2022/06/16 11:49:29;;;;;;;7.90;2.50;;;34.80;58.70;;;;;;4914728;29;20055;-63
2022/06/16 11:52:20;;;;;;;9.80;3.10;;;34.40;59.40;;;;;;4914492;29;20573;-63
2022/06/16 11:55:19;;;;;;;10.35;3.05;;;34.60;59.30;;;;;;4913899;29;20037;-63
2022/06/16 11:57:57;;;;;;;11.35;2.95;;;34.60;58.40;;;;;;4914783;29;20095;-63
2022/06/16 12:00:30;;;;;;;9.85;3.03;;;35.00;57.60;;;;;;4913074;29;20036;-64
2022/06/16 12:03:04;;;;;;;10.23;3.35;;;35.00;59.20;;;;;;4914640;29;20084;-63
2022/06/16 12:05:48;;;;;;;6.57;2.88;;;35.30;60.10;;;;;;4914141;29;20086;-64
2022/06/16 12:08:16;;;;;;;;;;;35.00;62.70;;;;;;4914307;29;20031;-64
2022/06/16 12:10:52;;;;;;;10.98;2.83;;;34.80;59.90;;;;;;4914343;29;20104;-63
2022/06/16 12:13:39;;;;;;;9.23;2.67;;;34.50;58.20;;;;;;4913656;29;20100;-61
2022/06/16 12:16:52;;;;;;;7.63;2.85;;;35.30;58.40;;;;;;4913998;29;20100;-63
2022/06/16 12:19:37;;;;;;;9.35;2.83;;;34.90;61.10;;;;;;4947026;28;20518;-63
2022/06/16 12:22:38;;;;;;;8.07;3.15;;;34.70;59.60;;;;;;4967425;28;20030;-63
2022/06/16 12:25:14;;;;;;;10.02;3.10;;;34.40;61.10;;;;;;4946635;28;20055;-63
2022/06/16 12:27:39;;;;;;;10.57;3.00;;;35.50;60.30;;;;;;4963298;28;20066;-63
2022/06/16 12:30:24;;;;;;;11.20;2.97;;;35.10;60.60;;;;;;4963005;28;20074;-64
2022/06/16 12:33:04;;;;;;;7.97;2.85;;;34.70;59.70;;;;;;4965457;28;20027;-65
2022/06/16 12:35:48;;;;;;;9.52;2.90;;;34.80;59.50;;;;;;4963495;28;20034;-62
2022/06/16 12:38:38;;;;;;;11.18;2.92;;;35.30;60.00;;;;;;4962089;28;20033;-63
2022/06/16 12:41:15;;;;;;;8.52;2.60;;;35.70;59.30;;;;;;4963534;28;20086;-63
2022/06/16 12:44:01;;;;;;;5.57;2.40;;;35.10;59.00;;;;;;4962968;28;20046;-63
2022/06/16 12:46:40;;;;;;;5.75;2.72;;;35.10;57.80;;;;;;4960168;28;20085;-63
2022/06/16 12:49:22;;;;;;;8.05;3.22;;;35.20;58.30;;;;;;4959623;28;20038;-64
2022/06/16 12:51:57;;;;;;;9.88;2.83;;;35.40;58.40;;;;;;4962679;28;20035;-63
2022/06/16 12:54:33;;;;;;;9.57;3.00;;;35.90;60.40;;;;;;4964522;28;20026;-63
2022/06/16 12:57:08;;;;;;;10.90;2.85;;;36.10;58.50;;;;;;4982088;28;20027;-63
2022/06/16 12:59:41;;;;;;;11.00;3.15;;;35.10;58.60;;;;;;4980931;28;20031;-61
2022/06/16 13:02:09;;;;;;;;;;;35.40;59.00;;;;;;4981954;28;20038;-63
2022/06/16 13:04:35;;;;;;;7.32;2.88;;;35.70;57.60;;;;;;4987732;28;20415;-63
2022/06/16 13:07:10;;;;;;;7.38;2.85;;;35.40;58.30;;;;;;4988320;28;20065;-62
2022/06/16 13:09:36;;;;;;;9.50;3.15;;;35.40;58.30;;;;;;4987651;28;20388;-62
2022/06/16 13:12:05;;;;;;;9.48;3.30;;;35.30;58.30;;;;;;4987471;28;20026;-62
2022/06/16 13:14:36;;;;;;;6.38;2.67;;;35.40;59.50;;;;;;4991598;28;20018;-62
2022/06/16 13:17:05;;;;;;;11.75;3.13;;;35.30;58.00;;;;;;4977201;28;20039;-62
2022/06/16 13:20:05;;;;;;;9.82;2.80;;;35.50;59.20;;;;;;4975937;28;20031;-61
2022/06/16 13:22:36;;;;;;;13.98;3.60;;;35.50;59.30;;;;;;4967918;28;20047;-62
2022/06/16 13:25:25;;;;;;;5.75;2.72;;;35.40;57.60;;;;;;4987394;28;20065;-62
2022/06/16 13:27:55;;;;;;;9.45;2.95;;;35.30;58.20;;;;;;4987370;28;20033;-63
2022/06/16 13:30:37;;;;;;;8.38;3.33;;;35.20;58.30;;;;;;4987499;28;20117;-63
2022/06/16 13:33:06;;;;;;;11.15;2.85;;;35.30;58.50;;;;;;4987656;28;20022;-62
2022/06/16 13:35:40;;;;;;;10.60;2.97;;;35.20;57.70;;;;;;4987174;28;20019;-63
2022/06/16 13:38:06;;;;;;;8.75;2.90;;;35.00;59.60;;;;;;4990814;28;20064;-62
2022/06/16 13:40:41;;;;;;;9.90;2.95;;;35.00;59.60;;;;;;4988879;28;20027;-62